Date,TemperatureHighF,TemperatureAvgF,TemperatureLowF,DewpointHighF,DewpointAvgF,DewpointLowF,HumidityHigh,HumidityAvg,HumidityLow,PressureMaxIn,PressureMinIn,WindSpeedMaxMPH,WindSpeedAvgMPH,GustSpeedMaxMPH,PrecipitationSumIn
2013-1-1,62.6,55.7,47.0,53.0,47.9,40.0,81,75,66,30.20,29.95,6,0,0,0.00
2013-1-2,63.1,59.5,53.6,57.0,52.2,47.0,81,77,71,30.11,29.92,5,0,0,0.00
2013-1-3,55.1,52.1,47.6,49.0,46.3,43.0,83,80,77,30.24,30.06,1,0,0,0.01
2013-1-4,59.6,47.3,41.5,43.0,32.2,-99.9,84,68,46,30.33,30.22,2,0,0,0.00
2013-1-5,64.7,48.5,38.0,39.0,35.6,32.0,79,63,36,30.38,30.28,2,0,0,0.00
2013-1-6,55.0,50.8,49.1,45.0,42.4,39.0,80,73,64,30.28,30.12,3,0,0,0.00
2013-1-7,59.2,49.6,42.9,42.0,34.1,29.0,75,57,33,30.35,30.18,3,1,0,0.00
2013-1-8,65.8,55.0,46.7,51.0,43.4,34.0,77,66,52,30.35,30.26,1,0,0,0.00
2013-1-9,74.4,64.5,58.4,60.0,54.8,50.0,77,71,61,30.38,30.27,3,0,0,0.00
2013-1-10,69.6,61.5,56.9,60.0,54.4,50.0,85,78,58,30.40,30.32,4,0,0,0.00
2013-1-11,75.6,62.8,54.2,63.0,56.6,50.0,87,80,63,30.32,30.19,5,0,0,0.00
2013-1-12,77.6,65.2,57.8,63.0,58.2,54.0,87,78,58,30.21,30.13,1,0,0,0.00
2013-1-13,72.7,64.0,55.9,61.0,57.2,51.0,87,79,65,30.19,30.10,3,0,0,0.00
2013-1-14,77.9,65.7,59.3,62.0,58.1,55.0,87,77,55,30.21,30.13,5,0,0,0.00
2013-1-15,77.4,66.4,61.6,62.0,58.6,56.0,83,76,57,30.18,30.06,3,0,0,0.00
2013-1-16,75.3,66.4,61.2,61.0,58.5,56.0,86,77,56,30.09,29.99,4,1,0,0.00
2013-1-17,68.9,58.4,43.3,57.0,50.0,31.0,82,74,61,30.10,29.79,7,2,0,0.00
2013-1-18,64.7,49.3,42.3,37.0,27.7,14.0,70,48,15,30.48,30.10,6,1,0,0.00
2013-1-19,69.6,53.4,43.2,43.0,35.8,26.0,74,53,36,30.45,30.23,2,0,0,0.00
2013-1-20,74.9,56.2,46.1,49.0,39.7,29.0,83,59,19,30.23,30.08,3,0,0,0.00
2013-1-21,68.1,53.9,42.6,38.0,34.4,28.0,75,51,24,30.13,30.01,4,0,0,0.00
2013-1-22,65.2,51.1,42.3,27.0,18.8,12.0,42,30,13,30.30,30.08,5,1,0,0.00
2013-1-23,64.7,48.0,36.8,33.0,20.4,11.0,57,36,16,30.40,30.22,7,0,0,0.00
2013-1-24,74.4,56.2,42.2,43.0,34.0,21.0,63,46,17,30.40,30.14,6,2,0,0.00
2013-1-25,64.0,47.9,34.6,43.0,32.0,20.0,70,55,39,30.41,30.16,3,0,0,0.00
2013-1-26,74.2,59.1,49.9,51.0,45.0,40.0,73,61,31,30.29,30.12,3,0,0,0.00
2013-1-27,63.2,50.6,43.3,41.0,38.1,36.0,77,64,41,30.46,30.29,4,1,0,0.00
2013-1-28,71.1,55.0,47.6,49.0,43.2,39.0,75,65,45,30.43,30.28,1,0,0,0.00
2013-1-29,73.2,57.7,51.4,59.0,-6.7,-99.9,83,49,62,30.28,30.13,1,0,0,0.00
2013-1-30,69.4,64.9,58.4,60.0,-66.8,-99.9,77,15,42,30.13,29.71,11,3,0,0.00
2013-1-31,61.8,51.6,44.3,47.0,12.2,-99.9,80,36,17,30.21,29.79,10,2,0,0.00
2013-2-1,66.4,51.0,41.1,26.0,17.4,-5.0,47,30,7,30.36,30.20,9,1,0,0.00
2013-2-2,64.0,46.7,33.5,34.0,27.2,12.0,67,49,26,30.37,30.13,3,0,0,0.00
2013-2-3,67.4,54.0,43.9,31.0,24.9,19.0,55,35,16,30.13,29.97,11,1,0,0.00
2013-2-4,60.2,46.9,37.3,35.0,29.7,22.0,71,53,24,30.15,30.05,1,0,0,0.00
2013-2-5,69.8,54.2,41.6,46.0,41.3,34.0,80,63,41,30.09,29.99,5,1,0,0.00
2013-2-6,76.0,60.8,52.5,53.0,48.2,43.0,78,65,42,30.17,30.03,4,0,0,0.00
2013-2-7,62.4,58.3,54.8,58.0,52.8,48.0,87,82,74,30.15,29.73,11,1,0,0.02
2013-2-8,67.8,56.3,48.3,55.0,45.8,43.0,85,69,46,30.06,29.76,5,1,0,0.00
2013-2-9,67.8,52.5,42.1,45.0,35.4,26.0,76,56,21,30.32,30.06,4,0,0,0.00
2013-2-10,71.8,56.8,42.5,52.0,45.1,35.0,80,67,45,30.34,30.17,4,0,0,0.00
2013-2-11,65.0,62.2,59.9,58.0,55.6,52.0,83,79,73,30.20,30.06,5,0,0,0.00
2013-2-12,62.9,58.2,54.8,56.0,53.4,50.0,86,84,74,30.11,29.86,1,0,0,0.28
2013-2-13,76.3,65.1,53.2,64.0,32.1,-99.9,88,58,19,29.91,29.72,8,1,0,0.27
2013-2-14,54.2,49.9,44.3,43.0,39.2,36.0,77,67,58,30.07,29.89,4,0,0,0.00
2013-2-15,65.5,50.6,41.5,43.0,37.8,35.0,80,64,36,30.11,29.97,4,0,0,0.00
2013-2-16,56.9,46.0,38.2,41.0,33.0,10.0,80,62,30,30.06,29.86,10,1,0,0.00
2013-2-17,57.2,40.8,30.7,19.0,8.8,-8.0,57,32,7,30.32,30.07,7,1,0,0.00
2013-2-18,61.0,44.4,31.6,32.0,20.3,9.0,66,43,15,30.43,30.24,5,0,0,0.00
2013-2-19,62.0,53.8,42.8,52.0,44.7,33.0,82,72,53,30.25,29.97,6,1,0,0.00
2013-2-20,62.0,48.7,35.5,45.0,30.2,21.0,82,53,21,30.17,30.06,3,0,0,0.00
2013-2-21,69.1,53.0,39.8,48.0,37.0,20.0,80,59,16,30.17,30.08,2,0,0,0.00
2013-2-22,62.9,58.1,54.1,57.0,1.2,-99.9,83,51,67,30.12,30.02,4,1,0,0.00
2013-2-23,62.3,56.7,50.2,-99.9,-99.9,-99.9,0,0,100,30.03,29.80,6,0,0,0.01
2013-2-24,74.0,58.7,50.2,52.0,-27.1,-99.9,76,29,38,30.00,29.80,3,0,0,0.00
2013-2-25,57.0,52.1,46.0,49.0,-67.5,-99.9,83,18,77,30.03,29.85,4,0,0,0.01
2013-2-26,67.8,61.7,48.8,47.0,-76.8,-99.9,60,9,56,29.91,29.60,8,2,0,0.07
2013-2-27,60.1,53.2,48.5,47.0,37.0,33.0,67,55,42,29.92,29.75,5,1,0,0.00
2013-2-28,67.1,55.3,47.4,37.0,30.2,20.0,65,42,17,29.92,29.82,9,1,0,0.00
2013-3-1,53.2,47.5,41.3,31.0,26.3,23.0,55,44,33,29.98,29.89,4,0,0,0.01
2013-3-2,51.3,44.3,38.6,30.0,25.5,22.0,61,49,32,29.98,29.88,7,1,0,0.00
2013-3-3,47.0,40.2,33.5,26.0,22.1,18.0,64,50,32,30.07,29.94,4,1,0,0.00
2013-3-4,64.0,45.0,32.1,39.0,23.3,11.0,63,46,13,30.21,30.06,5,1,0,0.00
2013-3-5,63.2,54.8,42.9,53.0,42.0,35.0,76,63,42,30.14,29.77,9,2,0,0.06
2013-3-6,58.1,48.2,41.2,49.0,24.5,16.0,71,42,21,30.10,29.79,11,3,0,0.00
2013-3-7,63.1,46.9,37.6,34.0,28.5,23.0,71,51,22,30.24,30.11,3,0,0,0.00
2013-3-8,67.1,49.0,39.5,36.0,31.3,24.0,77,54,20,30.28,30.17,3,0,0,0.00
2013-3-9,67.3,50.5,38.0,38.0,32.1,28.0,72,52,24,30.33,30.22,2,0,0,0.00
2013-3-10,72.5,55.4,43.3,46.0,41.2,36.0,80,62,34,30.27,30.19,4,0,0,0.00
2013-3-11,69.4,61.3,53.8,55.0,50.0,46.0,81,67,50,30.20,29.91,3,0,0,0.00
2013-3-12,65.8,61.6,54.7,60.0,52.6,40.0,86,74,50,29.99,29.84,6,1,0,0.09
2013-3-13,73.3,57.9,46.4,40.0,25.7,12.0,59,34,10,30.16,29.99,5,1,0,0.00
2013-3-14,66.0,49.4,39.1,32.0,21.3,12.0,65,36,12,30.32,30.14,5,1,0,0.00
2013-3-15,76.7,53.8,40.9,46.0,32.6,18.0,67,49,11,30.25,30.08,6,1,0,0.00
2013-3-16,81.4,64.8,53.9,47.0,36.6,25.0,70,40,14,30.09,29.92,12,2,0,0.00
2013-3-17,74.6,63.5,57.2,52.0,48.2,43.0,71,58,41,30.08,29.98,6,2,0,0.00
2013-3-18,73.3,63.6,58.3,56.0,53.4,50.0,80,70,53,30.08,29.87,4,0,0,0.34
2013-3-19,84.7,65.4,56.2,57.0,46.4,26.0,85,58,14,30.02,29.83,5,0,0,0.04
2013-3-20,68.8,57.2,46.1,35.0,25.8,9.0,66,33,11,30.09,29.86,3,0,0,0.00
2013-3-21,65.5,51.8,44.1,36.0,18.2,-2.0,70,32,7,29.95,29.82,6,1,0,0.00
2013-3-22,61.5,49.6,42.3,38.0,26.6,12.0,71,42,26,30.10,29.95,2,0,0,0.00
2013-3-23,61.8,53.7,45.8,49.0,44.0,37.0,80,70,59,30.05,29.85,6,1,0,0.38
2013-3-24,78.6,62.9,53.8,64.0,42.7,-99.9,88,70,49,29.86,29.47,6,1,0,1.20
2013-3-25,63.2,53.6,45.1,48.0,27.4,9.0,76,42,15,29.99,29.61,12,2,0,0.00
2013-3-26,56.0,45.4,36.9,22.0,18.6,15.0,51,36,22,30.22,30.00,14,2,0,0.00
2013-3-27,63.2,47.8,35.6,32.0,24.0,16.0,61,43,18,30.29,30.19,3,0,0,0.00
2013-3-28,67.9,47.8,38.6,37.0,28.7,18.0,68,51,15,30.32,30.20,4,0,0,0.00
2013-3-29,69.6,54.3,42.1,43.0,35.8,25.0,80,55,19,30.34,30.23,3,0,0,0.00
2013-3-30,72.7,61.3,54.4,50.0,43.4,36.0,72,54,29,30.25,30.10,7,2,0,0.00
2013-3-31,72.7,62.8,55.9,53.0,48.9,42.0,73,61,46,30.11,29.92,8,2,0,0.01
2013-4-1,82.2,68.6,61.2,58.0,52.6,49.0,78,59,32,29.97,29.87,9,1,0,0.02
2013-4-2,72.3,60.8,52.8,49.0,43.7,37.0,73,55,28,30.13,29.97,5,0,0,0.00
2013-4-3,75.3,59.9,53.6,53.0,48.3,44.0,82,67,38,30.18,30.06,7,1,0,0.06
2013-4-4,65.2,57.8,51.4,58.0,-22.9,-99.9,86,41,71,30.17,29.84,10,1,0,0.45
2013-4-5,57.8,50.8,46.0,48.0,-55.2,-99.9,76,22,35,30.02,29.83,4,0,0,0.43
2013-4-6,74.4,57.7,47.1,50.0,-22.1,-99.9,71,26,18,30.21,30.02,6,1,0,0.00
2013-4-7,77.7,65.0,57.0,56.0,52.4,48.0,77,65,46,30.23,30.14,3,0,0,0.00
2013-4-8,79.2,65.0,54.5,59.0,35.3,-99.9,83,60,46,30.20,30.11,4,0,0,0.00
2013-4-9,82.0,69.9,61.6,62.0,42.9,-99.9,83,61,13,30.23,30.12,4,1,0,0.00
2013-4-10,81.6,70.7,63.7,60.0,56.1,-99.9,84,65,39,30.19,30.05,3,0,0,0.00
2013-4-11,76.7,70.2,65.5,66.0,62.5,59.0,84,77,65,30.05,29.85,6,1,0,0.00
2013-4-12,75.8,70.3,67.6,65.0,-68.7,-99.9,85,16,81,29.88,29.76,10,2,0,0.83
2013-4-13,80.3,65.7,55.9,52.0,28.0,-99.9,74,44,19,30.03,29.88,4,0,0,0.00
2013-4-14,70.6,63.6,57.0,58.0,-19.7,-99.9,82,38,19,30.08,29.93,4,0,0,0.15
2013-4-15,73.2,66.5,60.9,60.0,-71.3,-99.9,70,11,19,30.17,29.88,3,0,0,0.23
2013-4-16,85.1,71.2,63.4,61.0,-12.0,-99.9,74,31,26,30.26,30.15,3,0,0,0.06
2013-4-17,84.9,71.6,62.3,63.0,1.0,-99.9,79,37,37,30.23,30.16,4,0,0,0.03
2013-4-18,85.3,73.3,66.3,63.0,47.4,-99.9,83,61,13,30.15,30.03,4,0,0,0.02
2013-4-19,78.6,72.1,66.0,67.0,64.8,60.0,84,78,66,30.04,29.87,10,2,0,0.02
2013-4-20,63.9,56.6,50.8,57.0,46.8,41.0,83,71,52,30.23,29.98,5,0,0,0.01
2013-4-21,72.5,59.1,48.6,49.0,45.5,41.0,77,63,41,30.29,30.21,7,1,0,0.08
2013-4-22,78.6,62.4,53.1,47.0,42.6,38.0,68,51,26,30.25,30.12,5,1,0,0.00
2013-4-23,72.3,60.6,53.2,51.0,46.6,42.0,73,61,44,30.20,30.14,4,0,0,0.00
2013-4-24,78.1,65.2,53.1,59.0,54.3,48.0,84,69,48,30.18,30.09,4,0,0,0.04
2013-4-25,85.1,72.7,65.2,60.0,58.5,56.0,77,63,38,30.23,30.11,2,0,0,0.00
2013-4-26,80.7,68.9,62.9,59.0,52.8,46.0,79,59,30,30.37,30.22,5,1,0,0.00
2013-4-27,85.7,68.6,57.0,57.0,50.9,39.0,77,56,20,30.32,30.23,3,0,0,0.00
2013-4-28,81.4,71.0,63.7,60.0,57.5,52.0,79,63,46,30.23,30.05,4,0,0,0.00
2013-4-29,78.8,70.7,64.8,63.0,61.0,58.0,81,72,57,30.07,29.95,5,1,0,0.09
2013-4-30,86.5,70.9,63.7,64.0,60.0,56.0,86,70,40,30.09,29.97,3,0,0,0.00
2013-5-1,75.1,67.9,62.9,58.0,56.3,53.0,80,67,48,30.16,30.04,2,0,0,0.00
2013-5-2,71.3,67.8,65.0,62.0,60.0,57.0,81,76,69,30.14,30.07,6,1,0,0.10
2013-5-3,66.4,32.9,61.3,59.0,-19.1,-99.9,82,40,73,30.08,29.97,7,-483,0,0.23
2013-5-4,69.3,64.1,61.2,61.0,58.1,55.0,86,81,65,29.97,29.86,5,1,0,0.67
2013-5-5,74.4,67.3,59.3,64.0,58.5,51.0,86,74,46,29.86,29.74,8,1,0,0.82
2013-5-6,75.3,64.3,55.7,53.0,45.1,37.0,76,53,25,29.96,29.84,7,1,0,0.00
2013-5-7,71.8,63.8,57.8,58.0,49.4,45.0,71,60,40,30.00,29.91,3,0,0,0.17
2013-5-8,80.9,66.3,54.1,59.0,51.4,47.0,78,61,36,30.09,29.98,5,1,0,0.00
2013-5-9,86.7,72.4,63.1,61.0,57.4,52.0,78,61,30,30.13,30.05,5,1,0,0.00
2013-5-10,82.2,73.6,63.9,64.0,59.2,55.0,76,62,41,30.14,30.04,5,1,0,0.00
2013-5-11,84.0,74.6,67.8,66.0,62.3,56.0,80,67,42,30.05,29.92,7,1,0,0.00
2013-5-12,88.2,75.6,68.4,63.0,54.1,39.0,79,52,19,30.04,29.91,6,1,0,0.00
2013-5-13,83.4,68.5,57.5,44.0,35.1,25.0,53,32,12,30.17,30.03,3,0,0,0.00
2013-5-14,81.4,66.7,54.4,48.0,40.7,36.0,62,41,21,30.26,30.16,4,0,0,0.00
2013-5-15,85.9,72.4,62.9,57.0,51.6,43.0,64,50,24,30.21,30.06,6,1,0,0.00
2013-5-16,84.9,73.9,66.9,64.0,56.5,49.0,77,56,33,30.12,30.05,6,1,0,0.00
2013-5-17,83.4,74.1,66.9,64.0,62.6,60.0,81,68,48,30.15,30.06,6,1,0,0.00
2013-5-18,81.2,74.6,70.1,67.0,65.6,63.0,83,74,59,30.17,30.08,5,0,0,0.10
2013-5-19,81.1,75.1,72.3,69.0,67.3,66.0,84,77,62,30.15,30.07,6,0,0,0.02
2013-5-20,82.4,76.5,73.5,69.0,68.1,67.0,84,75,63,30.14,30.06,4,1,0,0.00
2013-5-21,80.5,75.8,73.0,69.0,67.1,64.0,83,75,62,30.11,30.01,7,1,0,0.00
2013-5-22,85.7,76.4,68.1,68.0,64.9,63.0,85,69,49,30.05,29.96,4,0,0,0.00
2013-5-23,89.9,78.7,72.8,67.0,64.3,59.0,80,63,38,29.98,29.90,5,1,0,0.00
2013-5-24,92.1,79.0,69.4,59.0,48.6,32.0,64,38,19,30.18,29.92,3,0,0,0.00
2013-5-25,78.8,68.2,59.8,48.0,40.0,31.0,60,38,19,30.32,30.16,5,0,0,0.00
2013-5-26,85.3,71.4,59.6,57.0,52.6,48.0,80,54,29,30.28,30.17,7,1,0,0.00
2013-5-27,84.7,74.2,64.8,62.0,58.1,54.0,79,58,39,30.26,30.20,3,0,0,0.00
2013-5-28,87.4,76.7,68.1,63.0,60.7,58.0,77,59,39,30.26,30.18,4,0,0,0.00
2013-5-29,88.8,77.7,70.9,63.0,61.5,59.0,71,59,38,30.26,30.17,3,0,0,0.00
2013-5-30,89.7,79.2,72.5,68.0,65.8,63.0,80,65,41,30.26,30.17,3,0,0,0.00
2013-5-31,89.0,79.2,73.2,70.0,67.0,65.0,82,67,48,30.23,30.17,4,0,0,0.00
2013-6-1,87.6,78.9,71.8,67.0,65.9,65.0,80,65,49,30.17,30.09,3,1,0,0.00
2013-6-2,85.5,78.8,75.4,71.0,68.4,66.0,81,71,57,30.12,29.97,3,0,0,0.64
2013-6-3,91.0,80.3,77.2,74.0,71.1,66.0,85,74,43,29.98,29.90,3,0,0,0.63
2013-6-4,87.8,79.0,73.9,72.0,69.9,68.0,83,74,56,30.05,29.93,3,0,0,0.01
2013-6-5,81.6,77.6,74.7,73.0,70.6,69.0,85,79,70,30.04,29.95,4,0,0,0.06
2013-6-6,77.9,74.3,71.8,72.0,69.2,66.0,87,83,77,29.98,29.66,5,1,0,1.47
2013-6-7,87.8,77.9,71.8,71.0,68.2,64.0,87,74,46,29.91,29.46,14,2,0,0.16
2013-6-8,87.6,80.1,74.7,71.0,69.4,66.0,80,70,49,30.11,29.91,7,1,0,0.00
2013-6-9,85.3,80.5,77.4,73.0,71.0,69.0,81,73,60,30.15,30.09,6,1,0,0.00
2013-6-10,85.1,79.3,73.3,73.0,70.7,66.0,83,75,64,30.13,29.99,6,1,0,0.38
2013-6-11,95.9,81.8,72.8,73.0,68.8,59.0,84,67,30,30.08,29.98,3,1,0,0.00
2013-6-12,101.5,88.2,78.6,74.0,66.9,60.0,71,52,26,30.04,29.95,4,0,0,0.00
2013-6-13,99.0,88.2,79.2,74.0,68.0,61.0,77,54,29,29.97,29.79,11,1,0,0.00
2013-6-14,94.0,83.8,74.4,70.0,61.4,51.0,67,49,24,30.00,29.75,4,0,0,0.00
2013-6-15,90.1,79.2,70.6,63.0,58.9,50.0,72,52,31,30.14,30.00,4,0,0,0.00
2013-6-16,89.3,79.6,72.7,62.0,59.3,56.0,68,51,33,30.18,30.09,5,0,0,0.00
2013-6-17,89.5,80.8,73.5,73.0,68.6,61.0,81,67,54,30.11,30.00,6,1,0,0.11
2013-6-18,92.1,83.5,75.4,73.0,68.2,62.0,81,62,37,30.02,29.91,7,1,0,0.00
2013-6-19,88.8,79.3,72.3,73.0,68.6,66.0,82,70,52,30.06,29.94,3,0,0,1.23
2013-6-20,87.4,77.9,72.1,71.0,67.1,63.0,86,71,50,30.17,30.03,4,0,0,0.00
2013-6-21,92.5,79.6,72.3,68.0,65.5,63.0,78,63,41,30.18,30.11,3,0,0,0.00
2013-6-22,84.7,78.5,73.3,71.0,68.4,66.0,82,71,60,30.19,30.11,3,0,0,0.06
2013-6-23,89.9,81.2,74.2,72.0,69.4,68.0,84,68,51,30.20,30.13,3,0,0,0.00
2013-6-24,90.5,81.6,76.1,74.0,70.3,68.0,83,69,51,30.25,30.17,2,0,0,0.31
2013-6-25,90.3,81.4,75.4,72.0,68.5,62.0,80,66,49,30.19,30.09,3,0,0,0.03
2013-6-26,91.6,81.0,73.5,72.0,69.9,67.0,83,70,44,30.12,30.00,7,1,0,0.01
2013-6-27,93.4,83.1,77.0,73.0,69.5,60.0,77,65,42,30.01,29.86,6,1,0,0.00
2013-6-28,91.8,82.6,77.6,75.0,68.7,63.0,75,63,48,29.88,29.72,11,2,0,0.01
2013-6-29,89.3,79.1,75.4,73.0,69.0,65.0,83,72,47,29.80,29.74,4,1,0,1.60
2013-6-30,87.4,80.0,77.0,74.0,70.9,67.0,83,74,63,29.88,29.77,6,2,0,0.03
2013-7-1,86.5,79.2,74.2,71.0,69.8,68.0,83,73,61,30.03,29.84,10,2,0,0.19
2013-7-2,81.2,77.7,73.5,74.0,69.8,67.0,86,77,70,30.16,30.02,10,1,0,0.38
2013-7-3,89.0,81.3,75.3,73.0,71.2,68.0,81,72,58,30.21,30.13,8,1,0,0.02
2013-7-4,89.9,83.0,79.4,72.0,71.2,69.0,76,68,56,30.23,30.17,6,1,0,0.00
2013-7-5,90.1,83.0,79.6,73.0,71.5,69.0,77,69,54,30.23,30.17,6,1,0,0.00
2013-7-6,89.9,81.7,77.2,71.0,70.0,69.0,77,68,53,30.22,30.16,4,1,0,0.01
2013-7-7,91.8,83.2,79.0,71.0,69.1,66.0,73,63,46,30.21,30.14,4,1,0,0.00
2013-7-8,88.0,81.5,76.5,71.0,68.7,66.0,78,66,54,30.22,30.15,3,0,0,0.00
2013-7-9,90.3,82.1,75.4,72.0,69.0,67.0,82,65,51,30.22,30.12,7,1,0,0.00
2013-7-10,91.4,82.5,77.9,70.0,67.8,66.0,73,62,46,30.15,30.01,4,1,0,0.00
2013-7-11,89.0,82.5,79.0,71.0,69.2,67.0,73,65,56,30.03,29.92,6,2,0,0.00
2013-7-12,82.6,77.8,73.0,74.0,69.7,68.0,85,76,68,29.98,29.89,2,0,0,2.29
2013-7-13,86.1,79.0,73.2,75.0,71.2,69.0,87,77,63,30.06,29.94,1,0,0,0.06
2013-7-14,80.1,77.3,74.9,73.0,70.6,68.0,85,80,73,30.21,30.05,5,0,0,0.87
2013-7-15,90.3,80.9,76.3,74.0,71.5,68.0,84,74,53,30.25,30.18,4,1,0,0.22
2013-7-16,93.4,82.2,75.4,76.0,70.9,68.0,84,70,49,30.28,30.22,3,0,0,0.02
2013-7-17,93.4,81.5,74.6,73.0,69.3,65.0,86,68,48,30.25,30.14,6,0,0,0.00
2013-7-18,90.7,80.5,72.5,71.0,67.9,66.0,83,66,49,30.18,30.11,4,0,0,0.00
2013-7-19,89.0,81.8,77.7,71.0,69.0,67.0,77,66,51,30.14,30.05,6,1,0,0.03
2013-7-20,87.8,79.7,76.7,72.0,68.5,67.0,79,69,53,30.12,30.03,5,1,0,0.46
2013-7-21,83.6,77.8,74.4,73.0,69.3,67.0,82,75,63,30.09,30.00,5,0,0,0.54
2013-7-22,92.5,79.1,74.7,71.0,69.3,64.0,82,73,40,30.07,29.98,5,1,0,0.18
2013-7-23,92.1,81.8,75.4,70.0,68.0,65.0,79,64,41,29.98,29.86,12,1,0,0.17
2013-7-24,83.6,78.4,74.7,71.0,68.9,67.0,83,73,61,29.89,29.81,7,0,0,0.07
2013-7-25,96.1,80.9,72.7,71.0,68.3,65.0,82,67,44,29.98,29.80,3,0,0,0.00
2013-7-26,92.7,82.4,75.1,74.0,70.5,69.0,83,68,48,30.08,29.97,3,0,0,0.00
2013-7-27,92.5,83.5,79.2,72.0,70.8,69.0,76,66,47,30.05,29.93,3,0,0,0.00
2013-7-28,89.0,81.8,76.8,72.0,70.9,69.0,80,70,54,30.05,29.94,2,0,0,0.00
2013-7-29,92.3,81.9,73.7,73.0,70.3,67.0,79,69,50,30.21,30.02,4,0,0,0.51
2013-7-30,91.2,81.9,73.7,77.0,72.1,67.0,85,73,56,30.18,30.12,2,0,0,0.19
2013-7-31,88.2,79.5,72.8,73.0,71.1,67.0,85,76,61,30.15,30.04,5,0,0,1.27
2013-8-1,85.7,78.0,73.7,72.0,69.9,68.0,86,77,58,30.04,29.96,5,0,0,0.00
2013-8-2,90.3,81.6,74.9,73.0,70.3,68.0,80,69,54,30.06,29.96,10,1,0,0.00
2013-8-3,93.6,83.3,76.1,74.0,71.6,70.0,84,69,48,30.06,29.97,3,0,0,0.00
2013-8-4,96.6,85.3,77.7,73.0,70.2,66.0,79,63,37,30.02,29.94,5,0,0,0.01
2013-8-5,91.4,82.3,76.8,72.0,68.1,63.0,80,64,46,30.05,29.96,3,1,0,0.00
2013-8-6,92.3,83.3,79.2,67.0,66.0,65.0,64,57,41,30.06,29.96,4,0,0,0.00
2013-8-7,94.5,83.1,77.2,67.0,65.1,64.0,64,55,37,30.09,30.00,3,0,0,0.00
2013-8-8,94.3,82.7,76.5,72.0,70.0,67.0,81,67,46,30.09,30.00,4,0,0,0.00
2013-8-9,92.9,84.6,79.9,72.0,70.2,68.0,72,63,45,30.14,30.03,7,1,0,0.00
2013-8-10,91.2,84.2,78.6,73.0,70.9,65.0,80,65,49,30.17,30.10,6,1,0,0.00
2013-8-11,94.3,85.0,79.2,74.0,72.5,70.0,80,67,48,30.18,30.10,6,1,0,0.00
2013-8-12,102.0,86.4,78.5,74.0,69.8,63.0,73,60,28,30.13,30.01,6,1,0,0.00
2013-8-13,96.8,85.0,78.3,75.0,71.5,65.0,83,66,35,30.03,29.89,7,1,0,0.31
2013-8-14,95.6,81.3,74.2,75.0,70.0,66.0,83,70,38,30.02,29.89,9,1,0,2.02
2013-8-15,77.4,73.8,69.6,71.0,68.4,65.0,87,83,73,30.08,29.97,2,0,0,0.82
2013-8-16,90.1,77.7,70.9,74.0,70.1,66.0,87,78,55,30.08,29.99,2,0,0,1.34
2013-8-17,84.1,76.3,73.0,74.0,70.5,68.0,87,82,66,30.17,30.04,1,0,0,0.14
2013-8-18,92.1,80.1,70.9,75.0,70.9,67.0,88,75,53,30.19,30.11,2,0,0,1.39
2013-8-19,92.3,82.9,77.6,74.0,71.6,69.0,82,70,49,30.15,30.05,4,0,0,0.00
2013-8-20,92.5,82.1,76.0,76.0,71.8,68.0,85,72,52,30.17,30.06,3,0,0,0.63
2013-8-21,94.0,82.6,75.8,76.0,71.7,69.0,87,71,46,30.22,30.13,3,0,0,0.01
2013-8-22,93.8,81.9,74.0,74.0,70.2,67.0,85,69,43,30.18,30.06,1,0,0,0.69
2013-8-23,93.4,81.8,73.7,71.0,69.2,67.0,83,67,43,30.08,30.02,2,0,0,0.00
2013-8-24,84.9,79.8,75.3,71.0,68.1,63.0,80,68,59,30.21,30.04,2,0,0,0.00
2013-8-25,93.6,79.7,72.1,66.0,61.7,49.0,77,56,22,30.29,30.20,3,0,0,0.00
2013-8-26,90.5,79.3,71.8,67.0,63.7,60.0,72,60,42,30.26,30.15,3,0,0,0.00
2013-8-27,89.3,78.0,70.8,70.0,64.3,62.0,84,65,41,30.16,30.05,2,0,0,0.00
2013-8-28,93.8,80.2,72.5,69.0,64.9,60.0,78,62,33,30.07,30.00,6,0,0,0.00
2013-8-29,97.8,84.8,74.6,71.0,66.8,63.0,73,57,34,30.01,29.91,4,0,0,0.00
2013-8-30,94.3,83.2,77.6,73.0,70.6,67.0,79,66,48,30.00,29.91,4,0,0,0.00
2013-8-31,92.9,82.6,76.0,74.0,71.2,69.0,83,69,49,30.00,29.92,3,0,0,0.00
2013-9-1,92.5,83.4,76.5,72.0,71.0,68.0,79,67,50,29.99,29.89,9,1,0,0.00
2013-9-2,96.3,81.5,70.3,73.0,69.3,64.0,84,68,39,29.98,29.87,9,1,0,4.64
2013-9-3,93.8,81.1,72.8,75.0,70.5,68.0,85,72,43,29.98,29.89,3,0,0,0.01
2013-9-4,93.8,82.2,76.1,74.0,70.8,67.0,82,69,49,30.10,29.96,2,0,0,0.00
2013-9-5,99.4,82.8,74.7,73.0,69.7,66.0,84,66,38,30.11,30.03,3,0,0,0.00
2013-9-6,98.0,82.4,74.4,72.0,66.1,60.0,83,61,29,30.11,30.03,2,0,0,0.00
2013-9-7,96.6,79.9,71.6,71.0,65.4,58.0,83,64,27,30.09,29.99,1,0,0,0.00
2013-9-8,91.8,79.8,71.3,70.0,65.3,62.0,85,64,38,30.02,29.94,6,0,0,0.00
2013-9-9,94.5,82.3,74.4,69.0,66.0,63.0,80,59,37,30.13,29.99,3,0,0,0.00
2013-9-10,93.6,83.0,76.1,69.0,66.4,63.0,76,58,37,30.21,30.11,4,0,0,0.00
2013-9-11,90.5,80.5,75.6,71.0,67.9,64.0,81,67,44,30.20,30.09,3,0,0,0.00
2013-9-12,94.0,81.2,74.2,71.0,66.1,58.0,83,63,32,30.10,29.91,3,0,0,0.00
2013-9-13,96.6,82.7,75.3,69.0,66.1,60.0,78,60,30,29.92,29.77,3,0,0,0.00
2013-9-14,96.6,81.4,72.5,69.0,65.8,58.0,76,60,39,30.04,29.79,3,0,0,0.00
2013-9-15,91.6,81.5,76.5,75.0,69.7,68.0,82,68,47,30.14,30.04,2,0,0,0.14
2013-9-16,91.6,80.7,74.7,74.0,70.2,65.0,84,71,51,30.13,30.03,2,0,0,0.01
2013-9-17,82.6,76.6,72.8,70.0,65.7,58.0,83,70,56,30.19,30.06,5,0,0,0.01
2013-9-18,91.6,76.6,68.4,62.0,56.5,51.0,77,53,26,30.20,30.12,4,0,0,0.00
2013-9-19,91.4,77.0,68.3,63.0,58.8,52.0,69,55,36,30.15,30.08,4,0,0,0.00
2013-9-20,89.9,76.9,69.4,68.0,63.1,59.0,84,65,36,30.09,29.97,2,0,0,0.00
2013-9-21,87.2,78.1,71.8,68.0,65.8,61.0,82,67,49,29.97,29.77,10,1,0,0.05
2013-9-22,77.9,75.1,71.1,70.0,66.9,64.0,81,75,66,29.86,29.72,4,0,0,0.01
2013-9-23,85.7,74.1,67.1,65.0,59.0,55.0,81,62,36,30.03,29.86,3,0,0,0.00
2013-9-24,84.9,76.2,71.8,64.0,60.0,56.0,68,58,43,30.02,29.89,4,0,0,0.00
2013-9-25,79.0,74.8,70.9,70.0,66.3,64.0,84,75,63,29.89,29.79,3,0,0,1.32
2013-9-26,74.4,69.6,65.6,67.0,63.4,59.0,87,81,71,29.95,29.79,2,0,0,0.19
2013-9-27,88.6,72.3,63.4,61.0,58.1,55.0,82,63,32,30.09,29.94,3,0,0,0.00
2013-9-28,83.6,71.3,62.1,58.0,55.0,51.0,69,58,39,30.14,30.07,3,0,0,0.00
2013-9-29,87.4,72.5,63.9,59.0,55.1,53.0,77,57,32,30.09,30.02,4,0,0,0.00
2013-9-30,87.0,69.1,61.0,59.0,53.2,46.0,83,61,25,30.08,30.00,2,0,0,0.00
2013-10-1,90.1,71.2,60.4,58.0,54.9,47.0,81,61,23,30.15,30.05,1,0,0,0.00
2013-10-2,91.2,73.3,62.6,61.0,57.1,51.0,83,61,26,30.15,30.09,2,0,0,0.00
2013-10-3,89.7,74.9,65.2,66.0,63.1,58.0,84,69,44,30.14,30.08,2,0,0,0.00
2013-10-4,91.4,77.2,70.3,70.0,65.3,62.0,85,69,41,30.15,30.07,2,0,0,0.00
2013-10-5,93.8,77.2,68.9,68.0,64.1,58.0,86,67,31,30.12,30.05,2,0,0,0.00
2013-10-6,92.9,78.8,69.4,73.0,67.8,64.0,86,71,43,30.05,29.92,3,0,0,0.00
2013-10-7,89.7,79.1,74.2,74.0,69.0,64.0,85,72,50,29.92,29.80,2,0,0,0.23
2013-10-8,74.6,68.5,62.1,69.0,61.4,54.0,84,78,71,30.06,29.84,4,0,0,0.14
2013-10-9,85.5,70.3,60.1,59.0,55.6,52.0,79,62,37,30.11,30.04,5,1,0,0.00
2013-10-10,88.6,71.7,59.3,56.0,52.3,49.0,74,54,26,30.08,29.98,4,0,0,0.00
2013-10-11,92.1,74.1,59.6,60.0,55.1,46.0,83,56,20,30.03,29.94,4,0,0,0.00
2013-10-12,89.3,72.9,62.4,62.0,57.7,52.0,78,62,31,30.05,29.95,1,0,0,0.00
2013-10-13,83.8,74.2,70.6,66.0,62.1,58.0,81,67,46,30.13,30.03,3,0,0,0.00
2013-10-14,77.9,71.3,68.6,62.0,60.9,60.0,75,70,57,30.12,30.04,3,0,0,0.00
2013-10-15,77.9,68.3,64.3,60.0,57.3,56.0,77,69,47,30.09,30.01,3,0,0,0.00
2013-10-16,84.0,70.7,62.9,63.0,59.4,57.0,84,69,44,30.03,29.98,2,0,0,0.00
2013-10-17,85.1,73.3,64.5,67.0,62.8,59.0,85,71,45,30.01,29.93,3,0,0,0.00
2013-10-18,87.0,77.0,70.1,68.0,66.8,65.0,84,72,50,30.00,29.91,3,0,0,0.00
2013-10-19,85.1,74.5,67.1,70.0,66.4,57.0,84,76,57,29.97,29.88,4,0,0,0.14
2013-10-20,79.2,68.9,63.1,58.0,55.7,51.0,74,64,45,30.06,29.92,3,0,0,0.01
2013-10-21,73.7,68.2,64.3,60.0,56.7,55.0,74,67,58,30.10,30.01,1,0,0,0.00
2013-10-22,71.3,66.7,64.0,59.0,58.1,57.0,80,74,61,30.03,29.86,4,0,0,0.04
2013-10-23,78.1,65.9,58.3,59.0,47.9,29.0,84,58,19,30.04,29.80,6,1,0,0.00
2013-10-24,73.7,60.7,47.3,46.0,38.1,30.0,74,46,21,30.20,30.05,5,0,0,0.00
2013-10-25,74.0,58.9,48.6,50.0,39.7,28.0,78,54,19,30.33,30.15,2,0,0,0.00
2013-10-26,77.7,60.8,45.7,44.0,37.5,33.0,72,46,20,30.32,30.16,2,0,0,0.00
2013-10-27,79.2,58.7,45.2,51.0,42.9,38.0,82,60,25,30.16,30.09,3,0,0,0.00
2013-10-28,84.3,66.8,55.7,56.0,51.3,48.0,80,60,29,30.26,30.12,2,0,0,0.00
2013-10-29,85.7,66.8,56.7,59.0,52.3,47.0,83,64,27,30.32,30.23,2,0,0,0.00
2013-10-30,83.8,67.7,58.4,62.0,54.9,52.0,84,67,33,30.32,30.21,1,0,0,0.00
2013-10-31,84.9,70.2,59.2,66.0,60.2,53.0,85,72,48,30.21,30.01,2,0,0,0.00
2013-11-1,78.8,73.4,71.3,66.0,65.2,63.0,81,76,62,30.01,29.79,5,1,0,0.08
2013-11-2,77.6,66.8,58.7,67.0,54.8,43.0,85,68,30,29.97,29.78,5,0,0,1.16
2013-11-3,78.6,61.1,52.3,46.0,38.4,28.0,67,47,16,30.28,29.97,2,0,0,0.00
2013-11-4,75.1,60.6,51.9,44.0,39.5,29.0,61,48,19,30.39,30.26,4,1,0,0.00
2013-11-5,78.5,59.9,48.8,54.0,46.2,38.0,77,62,30,30.37,30.29,3,0,0,0.00
2013-11-6,80.1,67.6,58.7,62.0,58.0,52.0,83,72,51,30.28,30.09,3,0,0,0.01
2013-11-7,80.1,69.4,61.5,63.0,58.4,48.0,84,69,52,30.09,29.97,2,0,0,0.00
2013-11-8,72.1,57.4,46.7,47.0,31.5,20.0,60,41,14,30.28,30.05,6,1,0,0.00
2013-11-9,74.4,59.4,46.4,48.0,41.8,33.0,71,54,36,30.31,30.21,2,0,0,0.00
2013-11-10,81.4,63.6,54.8,54.0,49.0,41.0,78,62,24,30.24,30.14,1,0,0,0.00
2013-11-11,75.6,59.9,48.9,51.0,47.5,42.0,81,65,41,30.25,30.15,2,0,0,0.00
2013-11-12,76.1,60.2,51.0,53.0,46.2,32.0,83,63,29,30.23,30.01,4,0,0,0.00
2013-11-13,60.2,46.4,36.5,22.0,15.7,9.0,54,33,13,30.49,30.43,5,1,0,0.00
2013-11-14,73.0,52.4,36.8,46.0,33.5,22.0,73,51,29,30.48,30.29,2,0,0,0.00
2013-11-15,65.6,58.3,52.2,56.0,51.2,45.0,83,77,67,30.29,30.13,0,0,0,0.08
2013-11-16,81.6,66.8,60.2,62.0,56.3,53.0,86,71,41,30.20,30.14,1,0,0,0.03
2013-11-17,75.1,68.0,62.4,66.0,61.4,55.0,84,79,73,30.16,30.01,1,0,0,0.00
2013-11-18,81.2,71.9,62.3,68.0,63.9,43.0,86,77,49,30.00,29.86,4,0,0,0.00
2013-11-19,69.8,58.1,50.8,43.0,33.6,25.0,56,42,21,30.15,29.94,4,0,0,0.00
2013-11-20,59.9,55.0,49.9,46.0,40.8,35.0,64,59,54,30.27,30.12,4,0,0,0.00
2013-11-21,68.1,61.2,55.0,57.0,50.2,44.0,78,68,58,30.33,30.26,4,0,0,0.00
2013-11-22,80.5,68.3,61.5,64.0,59.9,55.0,85,75,54,30.30,30.16,1,0,0,0.05
2013-11-23,73.9,65.9,59.9,63.0,57.6,49.0,85,75,64,30.16,30.00,3,0,0,0.00
2013-11-24,59.8,49.6,38.3,50.0,20.9,6.0,70,35,12,30.46,30.09,5,1,0,0.00
2013-11-25,51.7,44.6,36.0,42.0,27.5,10.0,77,53,33,30.45,30.18,5,1,0,0.01
2013-11-26,67.8,62.0,49.4,64.0,57.2,43.0,88,84,78,30.17,29.63,7,1,0,1.01
2013-11-27,66.9,51.5,37.2,63.0,43.4,26.0,88,74,59,30.20,29.52,13,2,0,0.04
2013-11-28,57.5,40.2,32.4,29.0,23.9,21.0,75,55,28,30.46,30.20,3,0,0,0.00
2013-11-29,64.5,46.3,35.5,37.0,32.0,29.0,77,60,29,30.49,30.40,2,0,0,0.00
2013-11-30,66.0,50.4,41.9,38.0,34.1,30.0,69,55,28,30.46,30.28,4,0,0,0.00
2013-12-1,60.2,53.5,49.2,48.0,42.7,36.0,79,67,61,30.28,29.99,1,0,0,0.00
2013-12-2,70.9,54.7,49.2,47.0,44.3,39.0,81,70,33,29.99,29.80,1,0,0,0.00
2013-12-3,64.2,56.1,47.1,56.0,49.2,42.0,86,78,67,29.96,29.86,3,0,0,0.00
2013-12-4,78.6,65.2,59.2,61.0,56.0,53.0,83,73,50,30.10,29.94,5,0,0,0.00
2013-12-5,74.2,65.4,59.5,63.0,58.8,55.0,87,79,61,30.15,30.08,5,0,0,0.00
2013-12-6,75.6,67.3,62.4,63.0,60.5,57.0,84,79,64,30.17,30.09,6,1,0,0.00
2013-12-7,77.7,66.4,54.8,65.0,59.4,50.0,86,78,63,30.29,30.12,4,0,0,0.20
2013-12-8,54.5,51.6,49.9,49.0,47.2,46.0,86,84,82,30.31,30.20,2,0,0,0.02
2013-12-9,74.0,59.5,50.5,63.0,54.4,47.0,88,83,68,30.22,30.05,1,0,0,0.00
2013-12-10,70.3,62.3,49.4,65.0,54.8,39.0,88,77,60,30.27,30.00,6,0,0,0.12
2013-12-11,62.7,51.8,44.9,41.0,38.1,34.0,75,61,42,30.37,30.28,6,0,0,0.00
2013-12-12,64.8,48.6,40.1,36.0,30.1,21.0,66,52,19,30.37,30.25,5,0,0,0.00
2013-12-13,65.5,49.3,37.2,42.0,35.7,28.0,77,61,39,30.37,30.20,3,0,0,0.00
2013-12-14,66.6,60.8,51.6,63.0,54.8,42.0,88,80,70,30.18,29.82,7,1,0,1.15
2013-12-15,64.8,56.0,44.9,61.0,48.8,34.0,88,77,64,30.14,29.81,6,1,0,0.10
2013-12-16,64.7,46.8,36.6,42.0,35.4,29.0,77,66,39,30.23,30.13,2,0,0,0.00
2013-12-17,70.8,52.0,41.8,44.0,35.8,26.0,77,57,19,30.23,30.11,4,0,0,0.00
2013-12-18,67.9,50.8,39.5,33.0,29.6,20.0,73,48,17,30.31,30.12,4,0,0,0.00
2013-12-19,72.7,51.9,37.5,48.0,40.7,31.0,83,68,39,30.33,30.21,1,0,0,0.00
2013-12-20,74.2,60.2,49.2,57.0,50.2,44.0,85,71,46,30.24,30.15,1,0,0,0.00
2013-12-21,75.1,66.3,59.6,64.0,59.5,54.0,86,79,65,30.15,30.06,3,0,0,0.00
2013-12-22,71.3,66.1,62.9,65.0,61.7,59.0,89,86,77,30.13,30.07,9,1,0,0.00
2013-12-23,72.3,65.8,57.6,65.0,61.2,54.0,88,85,76,30.14,30.05,6,1,0,0.44
2013-12-24,64.5,52.0,44.1,54.0,38.3,24.0,87,63,29,30.33,30.10,6,1,0,0.07
2013-12-25,55.4,45.9,37.0,34.0,29.6,25.0,62,54,41,30.40,30.28,4,0,0,0.00
2013-12-26,52.9,48.0,44.6,40.0,36.6,33.0,70,65,59,30.29,30.22,4,0,0,0.00
2013-12-27,63.4,51.3,45.2,38.0,32.3,26.0,70,50,26,30.37,30.27,2,0,0,0.00
2013-12-28,64.3,52.2,42.8,52.0,40.7,29.0,83,66,51,30.35,30.00,2,0,0,0.08
2013-12-29,73.0,63.2,52.2,65.0,55.6,45.0,88,77,51,30.00,29.83,14,1,0,0.83
2013-12-30,64.8,53.0,45.8,45.0,41.6,38.0,84,67,44,30.17,29.99,5,0,0,0.00
2013-12-31,57.5,52.8,47.7,43.0,41.4,40.0,76,66,55,30.35,30.15,3,0,0,0.00
2014-1-1,53.3,50.4,47.0,48.0,44.1,39.0,85,79,73,30.33,30.11,0,0,0,0.38
2014-1-2,58.7,53.3,46.2,55.0,49.0,35.0,88,85,66,30.11,29.69,9,0,0,0.69